sensor_id;sensor_type;location;lat;lon;timestamp;P1;durP1;ratioP1;P2;durP2;ratioP2
74995;SDS011;63545;51.690;5.202;2023-06-19T00:01:57;16.00;;;8.63;;
74995;SDS011;63545;51.690;5.202;2023-06-19T00:04:23;9.90;;;8.50;;
74995;SDS011;63545;51.690;5.202;2023-06-19T00:06:48;11.17;;;8.70;;
74995;SDS011;63545;51.690;5.202;2023-06-19T00:09:14;11.87;;;8.07;;
74995;SDS011;63545;51.690;5.202;2023-06-19T00:11:39;10.57;;;7.50;;
74995;SDS011;63545;51.690;5.202;2023-06-19T00:14:05;14.02;;;7.35;;
74995;SDS011;63545;51.690;5.202;2023-06-19T00:16:31;11.17;;;7.23;;
74995;SDS011;63545;51.690;5.202;2023-06-19T00:18:56;11.30;;;7.70;;
74995;SDS011;63545;51.690;5.202;2023-06-19T00:21:22;8.37;;;6.80;;
74995;SDS011;63545;51.690;5.202;2023-06-19T00:23:49;9.07;;;7.00;;
74995;SDS011;63545;51.690;5.202;2023-06-19T00:26:15;13.07;;;6.93;;
74995;SDS011;63545;51.690;5.202;2023-06-19T00:28:40;8.60;;;6.80;;
74995;SDS011;63545;51.690;5.202;2023-06-19T00:31:08;9.57;;;6.32;;
74995;SDS011;63545;51.690;5.202;2023-06-19T00:33:33;8.90;;;6.33;;
74995;SDS011;63545;51.690;5.202;2023-06-19T00:35:59;11.80;;;5.80;;
74995;SDS011;63545;51.690;5.202;2023-06-19T00:38:26;8.40;;;5.07;;
74995;SDS011;63545;51.690;5.202;2023-06-19T00:40:51;6.40;;;5.40;;
74995;SDS011;63545;51.690;5.202;2023-06-19T00:43:16;6.50;;;4.40;;
74995;SDS011;63545;51.690;5.202;2023-06-19T00:45:42;5.97;;;4.40;;
74995;SDS011;63545;51.690;5.202;2023-06-19T00:48:07;6.27;;;4.37;;
74995;SDS011;63545;51.690;5.202;2023-06-19T00:50:33;5.57;;;4.10;;
74995;SDS011;63545;51.690;5.202;2023-06-19T00:52:59;5.55;;;3.70;;
74995;SDS011;63545;51.690;5.202;2023-06-19T00:55:26;5.87;;;3.80;;
74995;SDS011;63545;51.690;5.202;2023-06-19T00:57:54;6.00;;;3.42;;
74995;SDS011;63545;51.690;5.202;2023-06-19T01:00:20;5.67;;;3.90;;
74995;SDS011;63545;51.690;5.202;2023-06-19T01:02:46;4.97;;;3.70;;
74995;SDS011;63545;51.690;5.202;2023-06-19T01:05:11;7.00;;;3.70;;
74995;SDS011;63545;51.690;5.202;2023-06-19T01:07:41;5.37;;;3.97;;
74995;SDS011;63545;51.690;5.202;2023-06-19T01:10:11;5.77;;;4.07;;
74995;SDS011;63545;51.690;5.202;2023-06-19T01:12:42;5.10;;;3.75;;
74995;SDS011;63545;51.690;5.202;2023-06-19T01:15:13;7.63;;;4.07;;
74995;SDS011;63545;51.690;5.202;2023-06-19T01:17:39;5.18;;;3.50;;
74995;SDS011;63545;51.690;5.202;2023-06-19T01:20:05;5.40;;;3.57;;
74995;SDS011;63545;51.690;5.202;2023-06-19T01:22:35;7.97;;;3.67;;
74995;SDS011;63545;51.690;5.202;2023-06-19T01:25:01;4.47;;;3.40;;
74995;SDS011;63545;51.690;5.202;2023-06-19T01:27:26;7.63;;;3.60;;
74995;SDS011;63545;51.690;5.202;2023-06-19T01:29:55;3.73;;;2.77;;
74995;SDS011;63545;51.690;5.202;2023-06-19T01:34:59;4.88;;;2.90;;
74995;SDS011;63545;51.690;5.202;2023-06-19T01:37:27;3.47;;;2.60;;
74995;SDS011;63545;51.690;5.202;2023-06-19T01:39:52;6.40;;;2.50;;
74995;SDS011;63545;51.690;5.202;2023-06-19T01:42:20;5.78;;;2.75;;
74995;SDS011;63545;51.690;5.202;2023-06-19T01:44:45;5.03;;;2.80;;
74995;SDS011;63545;51.690;5.202;2023-06-19T01:47:11;4.60;;;2.57;;
74995;SDS011;63545;51.690;5.202;2023-06-19T01:49:37;5.57;;;2.60;;
74995;SDS011;63545;51.690;5.202;2023-06-19T01:52:03;4.13;;;2.63;;
74995;SDS011;63545;51.690;5.202;2023-06-19T01:54:29;3.35;;;2.53;;
74995;SDS011;63545;51.690;5.202;2023-06-19T01:56:54;5.93;;;2.93;;
74995;SDS011;63545;51.690;5.202;2023-06-19T01:59:19;3.90;;;2.50;;
74995;SDS011;63545;51.690;5.202;2023-06-19T02:01:46;4.20;;;2.75;;
74995;SDS011;63545;51.690;5.202;2023-06-19T02:04:11;3.50;;;2.53;;
74995;SDS011;63545;51.690;5.202;2023-06-19T02:06:36;3.50;;;2.70;;
74995;SDS011;63545;51.690;5.202;2023-06-19T02:09:02;3.23;;;2.40;;
74995;SDS011;63545;51.690;5.202;2023-06-19T02:11:27;6.80;;;2.58;;
74995;SDS011;63545;51.690;5.202;2023-06-19T02:13:53;3.50;;;2.40;;
74995;SDS011;63545;51.690;5.202;2023-06-19T02:16:18;9.70;;;2.93;;
74995;SDS011;63545;51.690;5.202;2023-06-19T02:18:43;5.23;;;2.90;;
74995;SDS011;63545;51.690;5.202;2023-06-19T02:21:09;3.70;;;2.83;;
74995;SDS011;63545;51.690;5.202;2023-06-19T02:23:34;4.30;;;2.50;;
74995;SDS011;63545;51.690;5.202;2023-06-19T02:25:59;4.67;;;2.80;;
74995;SDS011;63545;51.690;5.202;2023-06-19T02:28:25;6.07;;;2.70;;
74995;SDS011;63545;51.690;5.202;2023-06-19T02:30:53;3.40;;;2.60;;
74995;SDS011;63545;51.690;5.202;2023-06-19T02:33:19;4.30;;;2.70;;
74995;SDS011;63545;51.690;5.202;2023-06-19T02:35:44;3.95;;;2.55;;
74995;SDS011;63545;51.690;5.202;2023-06-19T02:38:10;6.83;;;2.43;;
74995;SDS011;63545;51.690;5.202;2023-06-19T02:40:37;4.95;;;2.80;;
74995;SDS011;63545;51.690;5.202;2023-06-19T02:43:03;7.00;;;2.80;;
74995;SDS011;63545;51.690;5.202;2023-06-19T02:45:28;3.93;;;2.60;;
74995;SDS011;63545;51.690;5.202;2023-06-19T02:47:53;4.43;;;2.67;;
74995;SDS011;63545;51.690;5.202;2023-06-19T02:50:19;4.57;;;2.50;;
74995;SDS011;63545;51.690;5.202;2023-06-19T02:52:44;4.85;;;2.60;;
74995;SDS011;63545;51.690;5.202;2023-06-19T02:55:09;4.63;;;2.70;;
74995;SDS011;63545;51.690;5.202;2023-06-19T02:57:35;3.87;;;2.80;;
74995;SDS011;63545;51.690;5.202;2023-06-19T03:00:00;3.37;;;2.57;;
74995;SDS011;63545;51.690;5.202;2023-06-19T03:02:25;4.93;;;2.97;;
74995;SDS011;63545;51.690;5.202;2023-06-19T03:04:51;6.23;;;2.83;;
74995;SDS011;63545;51.690;5.202;2023-06-19T03:07:17;6.85;;;3.20;;
74995;SDS011;63545;51.690;5.202;2023-06-19T03:09:42;7.30;;;3.10;;
74995;SDS011;63545;51.690;5.202;2023-06-19T03:12:08;6.80;;;3.10;;
74995;SDS011;63545;51.690;5.202;2023-06-19T03:14:34;4.22;;;3.00;;
74995;SDS011;63545;51.690;5.202;2023-06-19T03:16:59;4.20;;;3.00;;
74995;SDS011;63545;51.690;5.202;2023-06-19T03:19:25;4.87;;;3.17;;
74995;SDS011;63545;51.690;5.202;2023-06-19T03:21:50;5.28;;;3.10;;
74995;SDS011;63545;51.690;5.202;2023-06-19T03:24:15;6.80;;;3.00;;
74995;SDS011;63545;51.690;5.202;2023-06-19T03:26:41;4.37;;;3.50;;
74995;SDS011;63545;51.690;5.202;2023-06-19T03:29:06;7.33;;;3.70;;
74995;SDS011;63545;51.690;5.202;2023-06-19T03:31:31;3.90;;;3.43;;
74995;SDS011;63545;51.690;5.202;2023-06-19T03:33:56;7.17;;;3.30;;
74995;SDS011;63545;51.690;5.202;2023-06-19T03:36:22;4.43;;;3.47;;
74995;SDS011;63545;51.690;5.202;2023-06-19T03:38:48;4.00;;;3.42;;
74995;SDS011;63545;51.690;5.202;2023-06-19T03:41:13;5.40;;;3.70;;
74995;SDS011;63545;51.690;5.202;2023-06-19T03:43:38;6.20;;;3.90;;
74995;SDS011;63545;51.690;5.202;2023-06-19T03:46:04;7.30;;;4.22;;
74995;SDS011;63545;51.690;5.202;2023-06-19T03:48:29;6.00;;;4.37;;
74995;SDS011;63545;51.690;5.202;2023-06-19T03:50:55;7.57;;;4.20;;
74995;SDS011;63545;51.690;5.202;2023-06-19T03:53:21;7.15;;;3.97;;
74995;SDS011;63545;51.690;5.202;2023-06-19T03:55:46;8.27;;;4.20;;
74995;SDS011;63545;51.690;5.202;2023-06-19T03:58:11;5.47;;;3.80;;
74995;SDS011;63545;51.690;5.202;2023-06-19T04:00:37;7.47;;;4.10;;
74995;SDS011;63545;51.690;5.202;2023-06-19T04:03:02;9.07;;;4.63;;
74995;SDS011;63545;51.690;5.202;2023-06-19T04:05:27;11.90;;;4.30;;
74995;SDS011;63545;51.690;5.202;2023-06-19T04:07:53;5.50;;;4.27;;
74995;SDS011;63545;51.690;5.202;2023-06-19T04:10:18;7.83;;;5.00;;
74995;SDS011;63545;51.690;5.202;2023-06-19T04:12:43;8.67;;;4.97;;
74995;SDS011;63545;51.690;5.202;2023-06-19T04:15:10;9.40;;;5.03;;
74995;SDS011;63545;51.690;5.202;2023-06-19T04:17:36;10.03;;;5.97;;
74995;SDS011;63545;51.690;5.202;2023-06-19T04:20:01;11.13;;;5.53;;
74995;SDS011;63545;51.690;5.202;2023-06-19T04:22:31;10.75;;;6.60;;
74995;SDS011;63545;51.690;5.202;2023-06-19T04:24:57;8.57;;;6.07;;
74995;SDS011;63545;51.690;5.202;2023-06-19T04:27:22;13.40;;;7.47;;
74995;SDS011;63545;51.690;5.202;2023-06-19T04:29:47;10.53;;;7.10;;
74995;SDS011;63545;51.690;5.202;2023-06-19T04:32:13;12.63;;;6.90;;
74995;SDS011;63545;51.690;5.202;2023-06-19T04:34:38;10.00;;;6.93;;
74995;SDS011;63545;51.690;5.202;2023-06-19T04:37:04;10.90;;;6.90;;
74995;SDS011;63545;51.690;5.202;2023-06-19T04:39:29;10.45;;;7.20;;
74995;SDS011;63545;51.690;5.202;2023-06-19T04:41:55;12.10;;;7.20;;
74995;SDS011;63545;51.690;5.202;2023-06-19T04:44:20;11.40;;;7.43;;
74995;SDS011;63545;51.690;5.202;2023-06-19T04:46:45;10.57;;;7.50;;
74995;SDS011;63545;51.690;5.202;2023-06-19T04:49:11;10.80;;;7.80;;
74995;SDS011;63545;51.690;5.202;2023-06-19T04:51:37;10.15;;;7.45;;
74995;SDS011;63545;51.690;5.202;2023-06-19T04:54:03;10.10;;;7.27;;
74995;SDS011;63545;51.690;5.202;2023-06-19T04:56:28;9.52;;;7.28;;
74995;SDS011;63545;51.690;5.202;2023-06-19T04:58:54;12.80;;;7.97;;
74995;SDS011;63545;51.690;5.202;2023-06-19T05:01:21;10.23;;;7.20;;
74995;SDS011;63545;51.690;5.202;2023-06-19T05:03:52;11.25;;;7.78;;
74995;SDS011;63545;51.690;5.202;2023-06-19T05:06:17;11.37;;;8.57;;
74995;SDS011;63545;51.690;5.202;2023-06-19T05:08:43;16.13;;;8.98;;
74995;SDS011;63545;51.690;5.202;2023-06-19T05:11:08;11.87;;;9.10;;
74995;SDS011;63545;51.690;5.202;2023-06-19T05:13:33;12.83;;;9.13;;
74995;SDS011;63545;51.690;5.202;2023-06-19T05:15:59;13.47;;;9.43;;
74995;SDS011;63545;51.690;5.202;2023-06-19T05:18:24;14.10;;;9.40;;
74995;SDS011;63545;51.690;5.202;2023-06-19T05:20:49;10.97;;;8.73;;
74995;SDS011;63545;51.690;5.202;2023-06-19T05:23:15;13.53;;;9.57;;
74995;SDS011;63545;51.690;5.202;2023-06-19T05:25:40;15.47;;;9.80;;
74995;SDS011;63545;51.690;5.202;2023-06-19T05:28:05;14.68;;;10.38;;
74995;SDS011;63545;51.690;5.202;2023-06-19T05:30:31;14.40;;;10.30;;
74995;SDS011;63545;51.690;5.202;2023-06-19T05:32:56;16.40;;;11.00;;
74995;SDS011;63545;51.690;5.202;2023-06-19T05:35:21;14.87;;;9.87;;
74995;SDS011;63545;51.690;5.202;2023-06-19T05:37:47;12.53;;;9.60;;
74995;SDS011;63545;51.690;5.202;2023-06-19T05:40:12;15.15;;;10.05;;
74995;SDS011;63545;51.690;5.202;2023-06-19T05:42:38;11.40;;;9.87;;
74995;SDS011;63545;51.690;5.202;2023-06-19T05:45:04;11.25;;;9.65;;
74995;SDS011;63545;51.690;5.202;2023-06-19T05:47:30;9.90;;;8.50;;
74995;SDS011;63545;51.690;5.202;2023-06-19T05:49:59;13.88;;;7.93;;
74995;SDS011;63545;51.690;5.202;2023-06-19T05:52:24;9.57;;;8.57;;
74995;SDS011;63545;51.690;5.202;2023-06-19T05:54:49;10.95;;;8.07;;
74995;SDS011;63545;51.690;5.202;2023-06-19T05:57:15;10.23;;;8.17;;
74995;SDS011;63545;51.690;5.202;2023-06-19T05:59:41;12.35;;;8.07;;
74995;SDS011;63545;51.690;5.202;2023-06-19T06:02:07;11.50;;;8.07;;
74995;SDS011;63545;51.690;5.202;2023-06-19T06:04:32;10.35;;;7.65;;
74995;SDS011;63545;51.690;5.202;2023-06-19T06:06:59;10.95;;;7.93;;
74995;SDS011;63545;51.690;5.202;2023-06-19T06:09:24;10.00;;;8.20;;
74995;SDS011;63545;51.690;5.202;2023-06-19T06:11:49;14.90;;;7.87;;
74995;SDS011;63545;51.690;5.202;2023-06-19T06:14:15;9.53;;;7.83;;
74995;SDS011;63545;51.690;5.202;2023-06-19T06:16:40;9.67;;;8.20;;
74995;SDS011;63545;51.690;5.202;2023-06-19T06:19:06;11.73;;;8.53;;
74995;SDS011;63545;51.690;5.202;2023-06-19T06:21:31;12.73;;;9.10;;
74995;SDS011;63545;51.690;5.202;2023-06-19T06:23:57;12.73;;;8.52;;
74995;SDS011;63545;51.690;5.202;2023-06-19T06:26:22;14.73;;;8.70;;
74995;SDS011;63545;51.690;5.202;2023-06-19T06:28:47;12.33;;;8.30;;
74995;SDS011;63545;51.690;5.202;2023-06-19T06:31:13;11.13;;;8.23;;
74995;SDS011;63545;51.690;5.202;2023-06-19T06:33:38;18.42;;;8.70;;
74995;SDS011;63545;51.690;5.202;2023-06-19T06:36:03;15.03;;;8.93;;
74995;SDS011;63545;51.690;5.202;2023-06-19T06:38:29;14.10;;;10.23;;
74995;SDS011;63545;51.690;5.202;2023-06-19T06:40:54;14.80;;;9.60;;
74995;SDS011;63545;51.690;5.202;2023-06-19T06:43:20;12.97;;;9.47;;
74995;SDS011;63545;51.690;5.202;2023-06-19T06:45:45;12.80;;;9.80;;
74995;SDS011;63545;51.690;5.202;2023-06-19T06:48:11;13.47;;;9.90;;
74995;SDS011;63545;51.690;5.202;2023-06-19T06:50:36;14.13;;;9.90;;
74995;SDS011;63545;51.690;5.202;2023-06-19T06:53:02;14.70;;;9.80;;
74995;SDS011;63545;51.690;5.202;2023-06-19T06:55:27;15.30;;;10.57;;
74995;SDS011;63545;51.690;5.202;2023-06-19T06:57:53;15.60;;;9.63;;
74995;SDS011;63545;51.690;5.202;2023-06-19T07:00:18;13.60;;;10.70;;
74995;SDS011;63545;51.690;5.202;2023-06-19T07:02:44;13.00;;;11.33;;
74995;SDS011;63545;51.690;5.202;2023-06-19T07:05:11;14.10;;;10.68;;
74995;SDS011;63545;51.690;5.202;2023-06-19T07:07:37;15.20;;;11.17;;
74995;SDS011;63545;51.690;5.202;2023-06-19T07:10:02;18.13;;;10.33;;
74995;SDS011;63545;51.690;5.202;2023-06-19T07:12:28;13.48;;;10.93;;
74995;SDS011;63545;51.690;5.202;2023-06-19T07:14:53;15.77;;;11.00;;
74995;SDS011;63545;51.690;5.202;2023-06-19T07:17:18;16.40;;;12.00;;
74995;SDS011;63545;51.690;5.202;2023-06-19T07:19:44;16.07;;;11.80;;
74995;SDS011;63545;51.690;5.202;2023-06-19T07:22:09;14.43;;;11.43;;
74995;SDS011;63545;51.690;5.202;2023-06-19T07:24:34;17.92;;;12.63;;
74995;SDS011;63545;51.690;5.202;2023-06-19T07:27:00;14.77;;;12.07;;
74995;SDS011;63545;51.690;5.202;2023-06-19T07:29:25;15.60;;;12.20;;
74995;SDS011;63545;51.690;5.202;2023-06-19T07:31:51;24.38;;;12.57;;
74995;SDS011;63545;51.690;5.202;2023-06-19T07:34:17;17.67;;;12.53;;
74995;SDS011;63545;51.690;5.202;2023-06-19T07:36:42;13.93;;;12.17;;
74995;SDS011;63545;51.690;5.202;2023-06-19T07:39:07;17.20;;;12.97;;
74995;SDS011;63545;51.690;5.202;2023-06-19T07:41:33;14.83;;;12.67;;
74995;SDS011;63545;51.690;5.202;2023-06-19T07:43:58;16.83;;;14.67;;
74995;SDS011;63545;51.690;5.202;2023-06-19T07:46:23;21.52;;;15.38;;
74995;SDS011;63545;51.690;5.202;2023-06-19T07:48:49;20.67;;;13.93;;
74995;SDS011;63545;51.690;5.202;2023-06-19T07:51:14;18.60;;;13.67;;
74995;SDS011;63545;51.690;5.202;2023-06-19T07:53:40;17.63;;;13.53;;
74995;SDS011;63545;51.690;5.202;2023-06-19T07:56:05;16.20;;;13.63;;
74995;SDS011;63545;51.690;5.202;2023-06-19T07:58:30;16.75;;;12.93;;
74995;SDS011;63545;51.690;5.202;2023-06-19T08:00:56;17.50;;;14.47;;
74995;SDS011;63545;51.690;5.202;2023-06-19T08:03:21;17.87;;;15.63;;
74995;SDS011;63545;51.690;5.202;2023-06-19T08:05:47;21.45;;;16.02;;
74995;SDS011;63545;51.690;5.202;2023-06-19T08:08:12;20.90;;;16.80;;
74995;SDS011;63545;51.690;5.202;2023-06-19T08:10:38;21.87;;;16.80;;
74995;SDS011;63545;51.690;5.202;2023-06-19T08:13:04;21.20;;;16.80;;
74995;SDS011;63545;51.690;5.202;2023-06-19T08:15:29;19.20;;;17.00;;
74995;SDS011;63545;51.690;5.202;2023-06-19T08:17:54;21.50;;;17.87;;
74995;SDS011;63545;51.690;5.202;2023-06-19T08:20:20;23.80;;;19.87;;
74995;SDS011;63545;51.690;5.202;2023-06-19T08:22:45;20.27;;;17.48;;
74995;SDS011;63545;51.690;5.202;2023-06-19T08:25:11;27.90;;;17.63;;
74995;SDS011;63545;51.690;5.202;2023-06-19T08:27:36;21.20;;;18.63;;
74995;SDS011;63545;51.690;5.202;2023-06-19T08:30:02;20.97;;;17.47;;
74995;SDS011;63545;51.690;5.202;2023-06-19T08:32:28;19.17;;;17.08;;
74995;SDS011;63545;51.690;5.202;2023-06-19T08:34:53;24.73;;;18.87;;
74995;SDS011;63545;51.690;5.202;2023-06-19T08:37:19;25.35;;;18.50;;
74995;SDS011;63545;51.690;5.202;2023-06-19T08:39:44;21.23;;;17.53;;
74995;SDS011;63545;51.690;5.202;2023-06-19T08:42:09;25.43;;;18.67;;
74995;SDS011;63545;51.690;5.202;2023-06-19T08:44:35;32.80;;;19.67;;
74995;SDS011;63545;51.690;5.202;2023-06-19T08:47:04;22.95;;;18.50;;
74995;SDS011;63545;51.690;5.202;2023-06-19T08:49:30;24.65;;;19.90;;
74995;SDS011;63545;51.690;5.202;2023-06-19T08:51:58;22.08;;;19.05;;
74995;SDS011;63545;51.690;5.202;2023-06-19T08:54:23;25.07;;;19.00;;
74995;SDS011;63545;51.690;5.202;2023-06-19T08:56:49;20.23;;;17.93;;
74995;SDS011;63545;51.690;5.202;2023-06-19T08:59:16;23.83;;;18.73;;
74995;SDS011;63545;51.690;5.202;2023-06-19T09:01:48;21.27;;;18.03;;
74995;SDS011;63545;51.690;5.202;2023-06-19T09:04:17;20.17;;;17.67;;
74995;SDS011;63545;51.690;5.202;2023-06-19T09:06:54;22.50;;;18.42;;
74995;SDS011;63545;51.690;5.202;2023-06-19T09:09:22;23.33;;;18.00;;
74995;SDS011;63545;51.690;5.202;2023-06-19T09:14:35;23.83;;;17.47;;
74995;SDS011;63545;51.690;5.202;2023-06-19T09:17:05;21.90;;;17.90;;
74995;SDS011;63545;51.690;5.202;2023-06-19T09:19:32;20.80;;;17.10;;
74995;SDS011;63545;51.690;5.202;2023-06-19T09:22:06;21.33;;;17.67;;
74995;SDS011;63545;51.690;5.202;2023-06-19T09:24:36;23.27;;;17.73;;
74995;SDS011;63545;51.690;5.202;2023-06-19T09:27:06;21.87;;;16.47;;
74995;SDS011;63545;51.690;5.202;2023-06-19T09:29:38;21.13;;;17.20;;
74995;SDS011;63545;51.690;5.202;2023-06-19T09:32:14;26.52;;;17.90;;
74995;SDS011;63545;51.690;5.202;2023-06-19T09:34:40;21.75;;;16.85;;
74995;SDS011;63545;51.690;5.202;2023-06-19T09:37:05;23.87;;;16.63;;
74995;SDS011;63545;51.690;5.202;2023-06-19T09:39:31;23.83;;;18.70;;
74995;SDS011;63545;51.690;5.202;2023-06-19T09:41:57;22.80;;;17.70;;
74995;SDS011;63545;51.690;5.202;2023-06-19T09:44:24;23.73;;;17.65;;
74995;SDS011;63545;51.690;5.202;2023-06-19T09:46:49;24.80;;;17.83;;
74995;SDS011;63545;51.690;5.202;2023-06-19T09:49:17;21.58;;;17.23;;
74995;SDS011;63545;51.690;5.202;2023-06-19T09:51:43;21.67;;;17.40;;
74995;SDS011;63545;51.690;5.202;2023-06-19T09:54:09;22.97;;;16.73;;
74995;SDS011;63545;51.690;5.202;2023-06-19T09:56:34;24.58;;;18.50;;
74995;SDS011;63545;51.690;5.202;2023-06-19T09:59:00;18.92;;;16.80;;
74995;SDS011;63545;51.690;5.202;2023-06-19T10:01:30;21.77;;;17.35;;
74995;SDS011;63545;51.690;5.202;2023-06-19T10:04:06;21.03;;;15.53;;
74995;SDS011;63545;51.690;5.202;2023-06-19T10:06:32;21.50;;;17.02;;
74995;SDS011;63545;51.690;5.202;2023-06-19T10:09:05;19.90;;;15.73;;
74995;SDS011;63545;51.690;5.202;2023-06-19T10:11:48;18.83;;;15.10;;
74995;SDS011;63545;51.690;5.202;2023-06-19T10:14:16;18.25;;;15.13;;
74995;SDS011;63545;51.690;5.202;2023-06-19T10:16:43;18.92;;;13.50;;
74995;SDS011;63545;51.690;5.202;2023-06-19T10:19:13;19.17;;;14.13;;
74995;SDS011;63545;51.690;5.202;2023-06-19T10:21:50;17.17;;;13.98;;
74995;SDS011;63545;51.690;5.202;2023-06-19T10:24:18;15.90;;;13.85;;
74995;SDS011;63545;51.690;5.202;2023-06-19T10:26:55;19.17;;;14.13;;
74995;SDS011;63545;51.690;5.202;2023-06-19T10:29:21;20.77;;;15.80;;
74995;SDS011;63545;51.690;5.202;2023-06-19T10:31:47;16.87;;;13.97;;
74995;SDS011;63545;51.690;5.202;2023-06-19T10:34:12;18.47;;;14.13;;
74995;SDS011;63545;51.690;5.202;2023-06-19T10:36:37;18.20;;;14.23;;
74995;SDS011;63545;51.690;5.202;2023-06-19T10:39:03;23.37;;;16.07;;
74995;SDS011;63545;51.690;5.202;2023-06-19T10:41:29;24.20;;;16.85;;
74995;SDS011;63545;51.690;5.202;2023-06-19T10:43:57;23.35;;;16.85;;
74995;SDS011;63545;51.690;5.202;2023-06-19T10:46:24;22.25;;;14.52;;
74995;SDS011;63545;51.690;5.202;2023-06-19T10:48:54;21.23;;;15.87;;
74995;SDS011;63545;51.690;5.202;2023-06-19T10:51:25;18.67;;;14.52;;
74995;SDS011;63545;51.690;5.202;2023-06-19T10:53:53;21.30;;;15.77;;
74995;SDS011;63545;51.690;5.202;2023-06-19T10:56:20;21.23;;;13.77;;
74995;SDS011;63545;51.690;5.202;2023-06-19T10:58:46;19.67;;;15.40;;
74995;SDS011;63545;51.690;5.202;2023-06-19T11:01:11;19.33;;;14.43;;
74995;SDS011;63545;51.690;5.202;2023-06-19T11:03:36;19.38;;;14.52;;
74995;SDS011;63545;51.690;5.202;2023-06-19T11:06:02;18.97;;;13.10;;
74995;SDS011;63545;51.690;5.202;2023-06-19T11:08:28;17.58;;;13.55;;
74995;SDS011;63545;51.690;5.202;2023-06-19T11:10:53;14.90;;;12.33;;
74995;SDS011;63545;51.690;5.202;2023-06-19T11:13:20;20.05;;;13.30;;
74995;SDS011;63545;51.690;5.202;2023-06-19T11:15:47;13.87;;;10.37;;
74995;SDS011;63545;51.690;5.202;2023-06-19T11:18:15;13.48;;;10.60;;
74995;SDS011;63545;51.690;5.202;2023-06-19T11:20:51;18.00;;;11.30;;
74995;SDS011;63545;51.690;5.202;2023-06-19T11:23:24;16.63;;;11.47;;
74995;SDS011;63545;51.690;5.202;2023-06-19T11:25:50;21.58;;;13.07;;
74995;SDS011;63545;51.690;5.202;2023-06-19T11:28:16;18.03;;;12.80;;
74995;SDS011;63545;51.690;5.202;2023-06-19T11:30:47;17.52;;;11.98;;
74995;SDS011;63545;51.690;5.202;2023-06-19T11:33:17;15.07;;;10.80;;
74995;SDS011;63545;51.690;5.202;2023-06-19T11:35:48;12.68;;;9.15;;
74995;SDS011;63545;51.690;5.202;2023-06-19T11:38:21;14.68;;;9.30;;
74995;SDS011;63545;51.690;5.202;2023-06-19T11:40:49;14.07;;;9.67;;
74995;SDS011;63545;51.690;5.202;2023-06-19T11:43:24;13.07;;;9.35;;
74995;SDS011;63545;51.690;5.202;2023-06-19T11:45:50;12.77;;;9.35;;
74995;SDS011;63545;51.690;5.202;2023-06-19T11:48:26;10.07;;;8.20;;
74995;SDS011;63545;51.690;5.202;2023-06-19T11:50:52;12.27;;;8.88;;
74995;SDS011;63545;51.690;5.202;2023-06-19T11:53:18;13.45;;;8.80;;
74995;SDS011;63545;51.690;5.202;2023-06-19T11:55:44;10.13;;;7.90;;
74995;SDS011;63545;51.690;5.202;2023-06-19T11:58:10;10.63;;;7.67;;
74995;SDS011;63545;51.690;5.202;2023-06-19T12:00:38;12.27;;;9.10;;
74995;SDS011;63545;51.690;5.202;2023-06-19T12:03:04;13.50;;;10.05;;
74995;SDS011;63545;51.690;5.202;2023-06-19T12:05:29;13.07;;;9.40;;
74995;SDS011;63545;51.690;5.202;2023-06-19T12:07:54;14.17;;;9.33;;
74995;SDS011;63545;51.690;5.202;2023-06-19T12:10:20;13.30;;;7.53;;
74995;SDS011;63545;51.690;5.202;2023-06-19T12:12:45;11.43;;;8.07;;
74995;SDS011;63545;51.690;5.202;2023-06-19T12:15:10;10.93;;;8.00;;
74995;SDS011;63545;51.690;5.202;2023-06-19T12:17:36;13.15;;;8.48;;
74995;SDS011;63545;51.690;5.202;2023-06-19T12:20:02;12.43;;;7.90;;
74995;SDS011;63545;51.690;5.202;2023-06-19T12:22:31;9.52;;;6.90;;
74995;SDS011;63545;51.690;5.202;2023-06-19T12:24:57;9.65;;;7.00;;
74995;SDS011;63545;51.690;5.202;2023-06-19T12:27:22;12.33;;;7.40;;
74995;SDS011;63545;51.690;5.202;2023-06-19T12:29:48;10.47;;;7.67;;
74995;SDS011;63545;51.690;5.202;2023-06-19T12:32:13;10.00;;;7.20;;
74995;SDS011;63545;51.690;5.202;2023-06-19T12:34:38;10.52;;;7.57;;
74995;SDS011;63545;51.690;5.202;2023-06-19T12:37:05;14.43;;;8.83;;
74995;SDS011;63545;51.690;5.202;2023-06-19T12:39:31;13.25;;;8.13;;
74995;SDS011;63545;51.690;5.202;2023-06-19T12:41:57;17.95;;;9.50;;
74995;SDS011;63545;51.690;5.202;2023-06-19T12:44:23;11.00;;;7.70;;
74995;SDS011;63545;51.690;5.202;2023-06-19T12:46:49;10.93;;;8.05;;
74995;SDS011;63545;51.690;5.202;2023-06-19T12:49:15;10.47;;;7.37;;
74995;SDS011;63545;51.690;5.202;2023-06-19T12:51:40;8.03;;;6.90;;
74995;SDS011;63545;51.690;5.202;2023-06-19T12:54:05;8.43;;;7.13;;
74995;SDS011;63545;51.690;5.202;2023-06-19T12:56:31;10.93;;;7.73;;
74995;SDS011;63545;51.690;5.202;2023-06-19T12:58:56;10.97;;;8.10;;
74995;SDS011;63545;51.690;5.202;2023-06-19T13:01:22;12.70;;;7.25;;
74995;SDS011;63545;51.690;5.202;2023-06-19T13:03:47;10.90;;;7.20;;
74995;SDS011;63545;51.690;5.202;2023-06-19T13:06:12;11.07;;;7.90;;
74995;SDS011;63545;51.690;5.202;2023-06-19T13:08:38;11.53;;;7.40;;
74995;SDS011;63545;51.690;5.202;2023-06-19T13:11:03;9.70;;;6.97;;
74995;SDS011;63545;51.690;5.202;2023-06-19T13:13:28;12.30;;;8.10;;
74995;SDS011;63545;51.690;5.202;2023-06-19T13:15:54;12.13;;;7.53;;
74995;SDS011;63545;51.690;5.202;2023-06-19T13:18:19;10.50;;;6.83;;
74995;SDS011;63545;51.690;5.202;2023-06-19T13:20:44;9.83;;;6.30;;
74995;SDS011;63545;51.690;5.202;2023-06-19T13:23:12;9.35;;;6.60;;
74995;SDS011;63545;51.690;5.202;2023-06-19T13:25:38;12.03;;;7.07;;
74995;SDS011;63545;51.690;5.202;2023-06-19T13:28:03;9.33;;;6.20;;
74995;SDS011;63545;51.690;5.202;2023-06-19T13:30:29;11.47;;;6.43;;
74995;SDS011;63545;51.690;5.202;2023-06-19T13:32:54;12.53;;;6.70;;
74995;SDS011;63545;51.690;5.202;2023-06-19T13:35:19;10.50;;;6.07;;
74995;SDS011;63545;51.690;5.202;2023-06-19T13:37:46;8.93;;;6.47;;
74995;SDS011;63545;51.690;5.202;2023-06-19T13:40:12;12.30;;;6.25;;
74995;SDS011;63545;51.690;5.202;2023-06-19T13:42:37;8.63;;;6.30;;
74995;SDS011;63545;51.690;5.202;2023-06-19T13:45:03;7.90;;;5.97;;
74995;SDS011;63545;51.690;5.202;2023-06-19T13:47:29;10.02;;;6.43;;
74995;SDS011;63545;51.690;5.202;2023-06-19T13:49:55;9.43;;;6.50;;
74995;SDS011;63545;51.690;5.202;2023-06-19T13:52:21;8.38;;;6.60;;
74995;SDS011;63545;51.690;5.202;2023-06-19T13:54:47;11.77;;;6.70;;
74995;SDS011;63545;51.690;5.202;2023-06-19T13:57:12;10.90;;;6.30;;
74995;SDS011;63545;51.690;5.202;2023-06-19T13:59:38;10.50;;;6.10;;
74995;SDS011;63545;51.690;5.202;2023-06-19T14:02:03;9.70;;;6.63;;
74995;SDS011;63545;51.690;5.202;2023-06-19T14:04:29;11.70;;;6.37;;
74995;SDS011;63545;51.690;5.202;2023-06-19T14:06:54;12.10;;;7.07;;
74995;SDS011;63545;51.690;5.202;2023-06-19T14:09:20;8.20;;;6.38;;
74995;SDS011;63545;51.690;5.202;2023-06-19T14:11:45;8.07;;;6.30;;
74995;SDS011;63545;51.690;5.202;2023-06-19T14:14:11;7.77;;;5.67;;
74995;SDS011;63545;51.690;5.202;2023-06-19T14:16:36;7.50;;;5.87;;
74995;SDS011;63545;51.690;5.202;2023-06-19T14:19:01;9.33;;;5.50;;
74995;SDS011;63545;51.690;5.202;2023-06-19T14:21:27;10.27;;;5.13;;
74995;SDS011;63545;51.690;5.202;2023-06-19T14:23:52;11.07;;;5.83;;
74995;SDS011;63545;51.690;5.202;2023-06-19T14:26:18;10.40;;;6.27;;
74995;SDS011;63545;51.690;5.202;2023-06-19T14:28:43;9.70;;;6.27;;
74995;SDS011;63545;51.690;5.202;2023-06-19T14:31:08;12.27;;;6.53;;
74995;SDS011;63545;51.690;5.202;2023-06-19T14:33:34;10.40;;;5.77;;
74995;SDS011;63545;51.690;5.202;2023-06-19T14:36:01;9.43;;;6.80;;